createdAt,value
2023-04-02T08:01:13.376Z,516.00
2023-04-02T08:02:13.417Z,513.00
2023-04-02T08:03:13.433Z,515.00
2023-04-02T08:04:13.433Z,513.00
2023-04-02T08:05:13.356Z,511.00
2023-04-02T08:06:13.345Z,511.00
2023-04-02T08:07:13.340Z,510.00
2023-04-02T08:08:13.312Z,511.00
2023-04-02T08:09:13.316Z,513.00
2023-04-02T08:10:13.332Z,513.00
2023-04-02T08:11:13.313Z,513.00
2023-04-02T08:12:13.294Z,515.00
2023-04-02T08:13:13.288Z,515.00
2023-04-02T08:14:13.326Z,517.00
2023-04-02T08:15:13.288Z,516.00
2023-04-02T08:16:13.361Z,513.00
2023-04-02T08:17:13.274Z,513.00
2023-04-02T08:18:13.271Z,511.00
2023-04-02T08:19:13.232Z,509.00
2023-04-02T08:20:13.325Z,510.00
2023-04-02T08:21:15.775Z,510.00
2023-04-02T08:22:13.337Z,507.00
2023-04-02T08:23:13.343Z,509.00
2023-04-02T08:24:13.372Z,508.00
2023-04-02T08:25:13.334Z,510.00
2023-04-02T08:26:13.320Z,513.00
2023-04-02T08:27:13.289Z,515.00
2023-04-02T08:28:13.304Z,516.00
2023-04-02T08:29:13.280Z,514.00
2023-04-02T08:30:13.281Z,509.00
2023-04-02T08:31:13.356Z,513.00
2023-04-02T08:32:13.256Z,516.00
2023-04-02T08:33:13.269Z,515.00
2023-04-02T08:34:13.265Z,513.00
2023-04-02T08:35:13.252Z,514.00
2023-04-02T08:36:13.274Z,514.00
2023-04-02T08:37:13.254Z,512.00
2023-04-02T08:38:13.249Z,510.00
2023-04-02T08:39:13.242Z,511.00
2023-04-02T08:40:13.211Z,507.00
2023-04-02T08:41:13.185Z,505.00
2023-04-02T08:42:13.211Z,505.00
2023-04-02T08:43:13.196Z,504.00
2023-04-02T08:44:13.219Z,501.00
2023-04-02T08:45:24.137Z,503.00
2023-04-02T08:46:14.220Z,505.00
2023-04-02T08:47:13.166Z,505.00
2023-04-02T08:48:13.185Z,508.00
2023-04-02T08:49:13.159Z,507.00
2023-04-02T08:50:13.136Z,507.00
2023-04-02T08:51:13.141Z,509.00
2023-04-02T08:52:13.112Z,509.00
2023-04-02T08:53:13.107Z,513.00
2023-04-02T08:54:13.109Z,513.00
2023-04-02T08:55:13.110Z,512.00
2023-04-02T08:56:13.122Z,515.00
2023-04-02T08:57:13.160Z,516.00
2023-04-02T08:58:13.095Z,517.00
2023-04-02T08:59:13.101Z,517.00
2023-04-02T09:00:13.066Z,518.00
2023-04-02T09:01:13.116Z,519.00
2023-04-02T09:02:13.074Z,519.00
2023-04-02T09:03:13.033Z,520.00
2023-04-02T09:04:13.070Z,521.00
2023-04-02T09:05:13.065Z,518.00
2023-04-02T09:06:14.707Z,516.00
2023-04-02T09:07:13.023Z,515.00
2023-04-02T09:08:13.003Z,515.00
2023-04-02T09:09:13.007Z,518.00
2023-04-02T09:10:13.009Z,515.00
2023-04-02T09:11:13.003Z,515.00
2023-04-02T09:12:13.021Z,514.00
2023-04-02T09:13:13.008Z,515.00
2023-04-02T09:14:12.982Z,518.00
2023-04-02T09:15:12.989Z,520.00
2023-04-02T09:16:12.995Z,519.00
2023-04-02T09:17:12.944Z,520.00
2023-04-02T09:18:12.998Z,518.00
2023-04-02T09:19:12.939Z,519.00
2023-04-02T09:20:12.928Z,521.00
2023-04-02T09:21:12.933Z,524.00
2023-04-02T09:22:12.940Z,521.00
2023-04-02T09:23:12.931Z,523.00
2023-04-02T09:24:12.899Z,524.00
2023-04-02T09:25:12.900Z,525.00
2023-04-02T09:26:12.935Z,525.00
2023-04-02T09:27:12.893Z,526.00
2023-04-02T09:28:12.896Z,524.00
2023-04-02T09:29:12.916Z,522.00
2023-04-02T09:30:12.880Z,522.00
2023-04-02T09:31:12.857Z,521.00
2023-04-02T09:32:12.876Z,521.00
2023-04-02T09:33:12.940Z,522.00
2023-04-02T09:34:12.851Z,522.00
2023-04-02T09:35:24.525Z,523.00
2023-04-02T09:36:16.027Z,520.00
2023-04-02T09:37:12.826Z,524.00
2023-04-02T09:38:12.824Z,525.00
2023-04-02T09:39:12.815Z,524.00
2023-04-02T09:40:12.791Z,524.00
2023-04-02T09:41:12.807Z,525.00
2023-04-02T09:42:12.797Z,524.00
2023-04-02T09:43:12.791Z,523.00
2023-04-02T09:44:12.802Z,523.00
2023-04-02T09:45:12.800Z,520.00
2023-04-02T09:46:12.849Z,520.00
2023-04-02T09:47:12.764Z,518.00
2023-04-02T09:48:12.762Z,517.00
2023-04-02T09:49:12.724Z,519.00
2023-04-02T09:50:12.762Z,519.00
2023-04-02T09:51:12.734Z,519.00
2023-04-02T09:52:12.725Z,519.00
2023-04-02T09:53:12.700Z,520.00
2023-04-02T09:54:12.739Z,519.00
2023-04-02T09:55:12.684Z,518.00
2023-04-02T09:56:12.668Z,519.00
2023-04-02T09:57:12.705Z,517.00
2023-04-02T09:58:12.694Z,517.00
2023-04-02T09:59:12.691Z,517.00
2023-04-02T10:00:25.426Z,518.00
2023-04-02T10:01:13.703Z,514.00
2023-04-02T10:02:12.663Z,516.00
2023-04-02T10:03:12.643Z,516.00
2023-04-02T10:04:12.664Z,516.00
2023-04-02T10:05:12.632Z,517.00
2023-04-02T10:06:12.646Z,518.00
2023-04-02T10:07:12.620Z,520.00
2023-04-02T10:08:12.602Z,521.00
2023-04-02T10:09:12.595Z,521.00
2023-04-02T10:10:12.648Z,522.00
2023-04-02T10:11:12.570Z,521.00
2023-04-02T10:12:12.584Z,523.00
2023-04-02T10:13:12.569Z,523.00
2023-04-02T10:14:12.561Z,523.00
2023-04-02T10:15:12.547Z,522.00
2023-04-02T10:16:12.658Z,520.00
2023-04-02T10:17:12.584Z,521.00
2023-04-02T10:18:12.543Z,519.00
2023-04-02T10:19:12.539Z,519.00
2023-04-02T10:20:12.551Z,520.00
2023-04-02T10:21:12.517Z,520.00
2023-04-02T10:22:12.501Z,518.00
2023-04-02T10:23:12.485Z,516.00
2023-04-02T10:24:12.524Z,517.00
2023-04-02T10:25:12.476Z,516.00
2023-04-02T10:26:12.459Z,516.00
2023-04-02T10:27:12.484Z,515.00
2023-04-02T10:28:12.490Z,513.00
2023-04-02T10:29:12.466Z,514.00
2023-04-02T10:30:12.496Z,516.00
2023-04-02T10:31:12.464Z,514.00
2023-04-02T10:32:12.468Z,515.00
2023-04-02T10:33:12.454Z,514.00
2023-04-02T10:34:12.497Z,514.00
2023-04-02T10:35:12.418Z,513.00
2023-04-02T10:36:12.459Z,514.00
2023-04-02T10:37:12.397Z,516.00
2023-04-02T10:38:12.409Z,516.00
2023-04-02T10:39:12.407Z,514.00
2023-04-02T10:40:12.451Z,514.00
2023-04-02T10:41:12.383Z,513.00
2023-04-02T10:42:12.381Z,514.00
2023-04-02T10:43:12.390Z,517.00
2023-04-02T10:44:19.594Z,519.00
2023-04-02T10:45:13.370Z,521.00
2023-04-02T10:46:12.353Z,524.00
2023-04-02T10:47:12.349Z,525.00
2023-04-02T10:48:12.349Z,525.00
2023-04-02T10:49:12.345Z,525.00
2023-04-02T10:50:12.342Z,526.00
2023-04-02T10:51:12.309Z,529.00
2023-04-02T10:52:12.333Z,528.00
2023-04-02T10:53:12.300Z,527.00
2023-04-02T10:54:12.299Z,526.00
2023-04-02T10:55:12.298Z,525.00
2023-04-02T10:56:12.299Z,524.00
2023-04-02T10:57:12.369Z,523.00
2023-04-02T10:58:12.273Z,523.00
2023-04-02T10:59:12.253Z,523.00
2023-04-02T11:00:12.661Z,523.00
2023-04-02T11:01:12.336Z,524.00
2023-04-02T11:02:12.284Z,526.00
2023-04-02T11:03:12.347Z,526.00
2023-04-02T11:04:14.149Z,525.00
2023-04-02T11:05:12.219Z,523.00
2023-04-02T11:06:12.231Z,523.00
2023-04-02T11:07:14.790Z,523.00
2023-04-02T11:08:12.198Z,523.00
2023-04-02T11:09:12.193Z,523.00
2023-04-02T11:10:12.196Z,523.00
2023-04-02T11:11:12.168Z,524.00
2023-04-02T11:12:12.155Z,521.00
2023-04-02T11:13:12.145Z,524.00
2023-04-02T11:14:12.169Z,525.00
2023-04-02T11:15:12.135Z,522.00
2023-04-02T11:16:12.203Z,520.00
2023-04-02T11:17:12.156Z,518.00
2023-04-02T11:18:12.134Z,519.00
2023-04-02T11:19:12.141Z,520.00
2023-04-02T11:20:12.157Z,519.00
2023-04-02T11:21:12.104Z,517.00
2023-04-02T11:22:12.090Z,517.00
2023-04-02T11:23:12.109Z,518.00
2023-04-02T11:24:12.112Z,519.00
2023-04-02T11:25:12.092Z,520.00
2023-04-02T11:26:12.087Z,524.00
2023-04-02T11:27:12.237Z,524.00
2023-04-02T11:28:12.046Z,524.00
2023-04-02T11:29:12.042Z,523.00
2023-04-02T11:30:12.064Z,527.00
2023-04-02T11:31:12.071Z,526.00
2023-04-02T11:32:12.025Z,524.00
2023-04-02T11:33:12.026Z,521.00
2023-04-02T11:34:12.011Z,520.00
2023-04-02T11:35:12.019Z,522.00
2023-04-02T11:36:12.059Z,523.00
2023-04-02T11:37:12.011Z,523.00
2023-04-02T11:38:12.024Z,522.00
2023-04-02T11:39:17.602Z,523.00
2023-04-02T11:40:13.072Z,521.00
2023-04-02T11:41:11.977Z,519.00
2023-04-02T11:42:11.978Z,521.00
2023-04-02T11:43:11.948Z,520.00
2023-04-02T11:44:11.935Z,519.00
2023-04-02T11:45:11.951Z,519.00
2023-04-02T11:46:11.972Z,520.00
2023-04-02T11:47:11.937Z,521.00
2023-04-02T11:48:11.905Z,521.00
2023-04-02T11:49:11.915Z,520.00
2023-04-02T11:50:11.921Z,517.00
2023-04-02T11:51:11.891Z,516.00
2023-04-02T11:52:12.804Z,512.00
2023-04-02T11:53:11.927Z,515.00
2023-04-02T11:54:11.888Z,516.00
2023-04-02T11:55:11.880Z,515.00
2023-04-02T11:56:11.904Z,515.00
2023-04-02T11:57:11.939Z,515.00
2023-04-02T11:58:11.891Z,515.00
2023-04-02T11:59:11.822Z,515.00
2023-04-02T12:00:11.868Z,515.00
2023-04-02T12:01:11.951Z,513.00
2023-04-02T12:02:12.167Z,511.00
2023-04-02T12:03:12.169Z,514.00
2023-04-02T12:04:12.142Z,515.00
2023-04-02T12:05:12.134Z,514.00
2023-04-02T12:06:12.121Z,516.00
2023-04-02T12:07:12.126Z,515.00
2023-04-02T12:08:12.230Z,517.00
2023-04-02T12:09:12.278Z,518.00
2023-04-02T12:10:12.294Z,516.00
2023-04-02T12:11:12.274Z,515.00
2023-04-02T12:12:12.299Z,516.00
2023-04-02T12:13:12.325Z,519.00
2023-04-02T12:14:12.388Z,519.00
2023-04-02T12:15:12.447Z,518.00
2023-04-02T12:16:12.519Z,517.00
2023-04-02T12:17:12.717Z,519.00
2023-04-02T12:18:12.545Z,517.00
2023-04-02T12:19:12.556Z,519.00
2023-04-02T12:20:12.695Z,515.00
2023-04-02T12:21:12.704Z,513.00
2023-04-02T12:22:12.688Z,513.00
2023-04-02T12:23:12.747Z,513.00
2023-04-02T12:24:12.701Z,513.00
2023-04-02T12:25:12.732Z,515.00
2023-04-02T12:26:12.781Z,515.00
2023-04-02T12:27:12.907Z,511.00
2023-04-02T12:28:12.997Z,511.00
2023-04-02T12:29:13.026Z,513.00
2023-04-02T12:30:13.007Z,516.00
2023-04-02T12:31:13.073Z,512.00
2023-04-02T12:32:13.034Z,512.00
2023-04-02T12:33:13.093Z,513.00
2023-04-02T12:34:13.094Z,513.00
2023-04-02T12:35:13.212Z,515.00
2023-04-02T12:36:13.287Z,517.00
2023-04-02T12:37:13.237Z,519.00
2023-04-02T12:38:13.280Z,514.00
2023-04-02T12:39:13.282Z,514.00
2023-04-02T12:40:13.289Z,517.00
2023-04-02T12:41:13.378Z,518.00
2023-04-02T12:42:13.451Z,520.00
2023-04-02T12:43:13.470Z,522.00
2023-04-02T12:44:13.518Z,523.00
2023-04-02T12:45:13.543Z,523.00
2023-04-02T12:46:13.570Z,523.00
2023-04-02T12:47:13.554Z,524.00
2023-04-02T12:48:13.604Z,526.00
2023-04-02T12:49:13.654Z,524.00
2023-04-02T12:50:13.756Z,525.00
2023-04-02T12:51:13.778Z,525.00
2023-04-02T12:52:13.791Z,525.00
2023-04-02T12:53:13.817Z,524.00
2023-04-02T12:54:13.795Z,524.00
2023-04-02T12:55:13.818Z,522.00
2023-04-02T12:56:13.817Z,520.00
2023-04-02T12:57:13.885Z,519.00
2023-04-02T12:58:13.867Z,520.00
2023-04-02T12:59:13.874Z,521.00
2023-04-02T13:00:14.020Z,522.00
